• Join FlightAware (Why Join?)
  • Login
  • US Flag 
11:10PM EDT


 

Airport Tracker/Info


-or-


 

Live Flight TrackerFlight Track Log ✈ N803ER ✈ 06-May-2013 ✈ KTOL - KBKL

Flight Track Log - Related Links

Times and Time Zones

All times are in EDT time to prevent confusion due to time zone crossing. See the N803ER flight status page for this flight to view local times or setup timezone preferences in your user account.

Time Position Orientation Groundspeed Altitude Reporting Facility
EDT Latitude Longitude Course Direction KTS MPH feet Rate Location/Type
09:38PM 41.5816 -83.5953 92° East  Level Estimated
09:39PM 41.5807 -83.5599 92° East  Level Estimated
09:40PM 41.5798 -83.5245 92° East  Level Estimated
09:41PM 41.5789 -83.4891 92° East  Level Estimated
09:42PM 41.5780 -83.4537 92° East  Level Estimated
09:43PM 41.5770 -83.4183 92° East  Level Estimated
09:44PM 41.5761 -83.3829 92° East  Level Estimated
09:45PM 41.5751 -83.3475 92° East  Level Estimated
09:46PM 41.5742 -83.3120 92° East  Level Estimated
09:47PM 41.5732 -83.2766 92° East  Level Estimated
09:48PM 41.5722 -83.2412 92° East  Level Estimated
09:49PM 41.5712 -83.2058 92° East  Level Estimated
09:50PM 41.5701 -83.1704 92° East  Level Estimated
09:51PM 41.5691 -83.1350 92° East  Level Estimated
09:51PM 41.5642 -83.0614 92° East 111 128 5,200  Level Cleveland Center
09:52PM 41.5681 -83.0996 92° East  Level Estimated
09:52PM 41.5647 -83.0364 88° East 111 128 5,100  Level Cleveland Center
09:53PM 41.5670 -83.0642 92° East  Level Estimated
09:53PM 41.5656 -82.9922 89° East 111 128 5,200  Level Cleveland Center
09:54PM 41.5659 -83.0288 92° East  Level Estimated
09:54PM 41.5622 -82.9531 96° East 113 130 5,100  Level Cleveland Center
09:55PM 41.5649 -82.9934 92° East  Level Estimated
09:55PM 41.5464 -82.9192 122° Southeast 111 128 5,100  Level Cleveland Center
09:56PM 41.5638 -82.9580 92° East  Level Estimated
09:56PM 41.5367 -82.8800 108° East 112 129 5,100  Level Cleveland Center
09:57PM 41.5250 -82.8381 110° East 110 127 5,100  Level Cleveland Center
09:58PM 41.5092 -82.8014 120° Southeast 108 124 5,100  Level Cleveland Center
09:59PM 41.5014 -82.7597 104° East 116 133 5,100  Level Cleveland Center
10:00PM 41.4958 -82.7233 102° East 111 128 5,100  Level Cleveland Center
10:01PM 41.4883 -82.6842 104° East 111 128 5,200  Climbing Cleveland Center
10:02PM 41.4808 -82.6425 103° East 113 130 5,100 -60 Descending Cleveland Center
10:03PM 41.4689 -82.6006 111° Southeast 118 136 5,100  Level Cleveland Center
10:05PM 41.4722 -82.5424 86° East  Level Estimated
10:06PM 41.4483 -82.4642 86° East 116 133 5,100  Level Cleveland Center
10:07PM 41.4450 -82.4169 95° East 118 136 5,100  Level Cleveland Center
10:08PM 41.4581 -82.3786 66° East 119 137 5,100  Level Cleveland Center
10:10PM 41.4537 -82.3267 83° East  Level FlightAware Approximate
10:10PM 41.4886 -82.2989 83° East 119 137 5,100  Level Cleveland Center
10:11PM 41.4953 -82.2603 77° East 116 133 5,100  Level Cleveland Center
10:12PM 41.4859 -82.2954 86° East  Level Estimated
10:13PM 41.4930 -82.2104 93° East  Level FlightAware Approximate
10:13PM 41.4967 -82.1689 93° East 118 136 5,100  Level Cleveland Center
10:14PM 41.4994 -82.1219 85° East 118 136 5,200  Climbing Cleveland Center
10:15PM 41.5042 -82.0775 82° East 120 138 5,200 -60 Level Cleveland Center
10:16PM 41.5067 -82.0333 86° East 122 140 5,100 -60 Descending Cleveland Center
10:18PM 41.5117 -81.9836 82° East 125 144 5,100  Level Cleveland Center
10:19PM 41.5164 -81.9392 82° East 120 138 5,100  Level Cleveland Center
10:19PM 41.5208 -81.9006 81° East 121 139 5,100  Level Cleveland Center
10:21PM 41.5236 -81.8506 86° East 121 139 5,100  Level Cleveland Center
10:22PM 41.5244 -81.7647 89° East 120 138 5,100  Level Cleveland Center
10:23PM 41.5228 -81.7231 93° East 124 143 5,100 -240 Level Cleveland Center
10:24PM 41.5231 -81.6814 89° East 120 138 4,700 -480 Descending Cleveland Center
10:25PM 41.5214 -81.6369 93° East 119 137 4,200 -720 Descending Cleveland Center
10:26PM 41.5197 -81.5953 93° East 118 136 3,400 -660 Descending Cleveland Center
10:27PM 41.5244 -81.5539 81° East 120 138 3,000 -180 Descending Cleveland Center
10:28PM 41.5456 -81.5097 57° Northeast 112 129 3,100  Climbing Cleveland Center
10:30PM 41.5625 -81.4683 61° Northeast 116 133 3,100  Level Cleveland Center
10:30PM 41.5917 -81.4853 337° Northwest 151 174 3,100 -360 Level Cleveland Center
10:31PM 41.5933 -81.5328 273° West 149 171 2,500 -360 Descending Cleveland Center
10:32PM 41.5764 -81.5658 236° Southwest 120 138 2,400 -120 Descending Cleveland Center